Time;durP1;ratioP1;P1;durP2;ratioP2;P2;SDS_P1;SDS_P2;PMS_P1;PMS_P2;Temp;Humidity;BMP_temperature;BMP_pressure;BME280_temperature;BME280_humidity;BME280_pressure;Samples;Min_cycle;Max_cycle;Signal;HPM_P1;HPM_P2
2021/09/09 00:00:13;;;;;;;18.08;12.43;;;20.30;73.60;;;;;;5034300;28;20079;-78
2021/09/09 00:02:39;;;;;;;14.40;11.43;;;20.20;73.70;;;;;;5033736;28;20060;-80
2021/09/09 00:05:06;;;;;;;14.18;11.27;;;20.20;73.70;;;;;;5033904;28;20533;-78
2021/09/09 00:07:32;;;;;;;16.50;12.48;;;20.20;73.90;;;;;;5034012;28;20156;-83
2021/09/09 00:09:59;;;;;;;16.50;12.02;;;20.10;73.80;;;;;;5035495;28;20017;-78
2021/09/09 00:12:24;;;;;;;15.80;12.38;;;20.20;74.00;;;;;;5034536;28;20021;-78
2021/09/09 00:14:50;;;;;;;19.77;12.50;;;20.10;74.00;;;;;;5034715;28;20398;-77
2021/09/09 00:17:16;;;;;;;13.55;10.30;;;20.10;74.00;;;;;;5034011;28;20109;-78
2021/09/09 00:19:42;;;;;;;13.88;10.35;;;20.10;74.10;;;;;;5034017;28;20025;-79
2021/09/09 00:22:08;;;;;;;13.43;9.18;;;20.10;74.00;;;;;;5036023;28;20025;-78
2021/09/09 00:24:34;;;;;;;14.88;11.25;;;20.00;74.20;;;;;;5034774;28;20024;-78
2021/09/09 00:26:59;;;;;;;13.20;9.60;;;20.00;74.20;;;;;;5033633;28;20028;-78
2021/09/09 00:29:25;;;;;;;15.60;11.80;;;20.00;74.10;;;;;;5032547;28;20080;-79
2021/09/09 00:31:53;;;;;;;17.17;11.07;;;20.00;74.20;;;;;;5032953;28;20032;-80
2021/09/09 00:34:19;;;;;;;16.30;11.98;;;19.90;74.20;;;;;;5032745;28;20028;-78
2021/09/09 00:36:45;;;;;;;17.17;12.55;;;19.90;74.40;;;;;;5032873;28;20025;-78
2021/09/09 00:39:10;;;;;;;14.73;11.43;;;19.90;74.40;;;;;;5032695;28;20044;-77
2021/09/09 00:41:36;;;;;;;17.33;12.13;;;19.90;74.40;;;;;;5035998;28;20064;-77
2021/09/09 00:44:02;;;;;;;15.15;10.52;;;19.80;74.40;;;;;;5037534;28;20098;-76
2021/09/09 00:46:31;;;;;;;12.60;10.18;;;19.80;74.60;;;;;;5036478;28;20069;-77
2021/09/09 00:48:57;;;;;;;17.08;13.18;;;19.80;74.50;;;;;;5033654;28;20390;-77
2021/09/09 00:51:24;;;;;;;14.45;11.63;;;19.80;74.40;;;;;;5034242;28;20021;-77
2021/09/09 00:53:50;;;;;;;18.90;13.90;;;19.70;74.40;;;;;;5032785;28;20036;-79
2021/09/09 00:56:19;;;;;;;14.80;11.07;;;19.70;74.50;;;;;;5032992;28;20408;-77
2021/09/09 00:58:45;;;;;;;15.70;10.93;;;19.70;74.50;;;;;;5032962;28;20025;-78
2021/09/09 01:01:11;;;;;;;16.83;12.05;;;19.70;74.50;;;;;;5032709;28;20474;-79
2021/09/09 01:03:37;;;;;;;17.42;13.20;;;19.70;74.60;;;;;;5032934;28;20047;-79
2021/09/09 01:06:03;;;;;;;18.80;14.05;;;19.70;74.50;;;;;;5032867;28;20029;-78
2021/09/09 01:08:30;;;;;;;18.33;13.68;;;19.60;74.50;;;;;;5033017;28;20030;-78
2021/09/09 01:10:56;;;;;;;20.58;14.82;;;19.70;74.80;;;;;;5032577;28;20117;-79
2021/09/09 01:13:24;;;;;;;18.48;11.93;;;19.60;74.70;;;;;;5033106;28;20191;-77
2021/09/09 01:15:50;;;;;;;17.13;11.05;;;19.60;74.80;;;;;;5032725;28;20071;-77
2021/09/09 01:18:16;;;;;;;15.57;10.48;;;19.60;74.80;;;;;;5032159;28;20044;-78
2021/09/09 01:20:42;;;;;;;17.63;12.85;;;19.60;75.30;;;;;;5032428;28;20059;-79
2021/09/09 01:23:08;;;;;;;19.60;14.63;;;19.50;74.90;;;;;;5033358;28;20036;-77
2021/09/09 01:25:35;;;;;;;14.43;10.50;;;19.50;75.00;;;;;;5034208;28;20053;-78
2021/09/09 01:28:01;;;;;;;19.35;15.00;;;19.50;75.00;;;;;;5033130;28;20390;-78
2021/09/09 01:30:27;;;;;;;17.20;12.80;;;19.50;75.20;;;;;;5034577;28;20022;-78
2021/09/09 01:32:52;;;;;;;17.23;12.20;;;19.40;75.00;;;;;;5033408;28;20029;-78
2021/09/09 01:35:18;;;;;;;19.15;13.90;;;19.40;75.90;;;;;;5033560;28;20112;-77
2021/09/09 01:37:44;;;;;;;14.50;10.63;;;19.40;75.30;;;;;;5033642;28;20045;-77
2021/09/09 01:40:10;;;;;;;14.77;11.10;;;19.40;75.30;;;;;;5034889;28;20029;-77
2021/09/09 01:42:36;;;;;;;19.05;13.82;;;19.40;75.30;;;;;;5033347;28;20029;-76
2021/09/09 01:45:02;;;;;;;19.33;12.95;;;19.40;75.40;;;;;;5032733;28;20027;-78
2021/09/09 01:47:27;;;;;;;16.55;12.23;;;19.40;75.40;;;;;;5032703;28;20112;-78
2021/09/09 01:49:53;;;;;;;18.58;14.63;;;19.40;75.50;;;;;;5031577;28;20025;-78
2021/09/09 01:52:18;;;;;;;19.35;13.30;;;19.40;75.50;;;;;;5032991;28;20028;-78
2021/09/09 01:54:44;;;;;;;17.50;13.88;;;19.30;76.10;;;;;;5033636;28;20053;-78
2021/09/09 01:57:10;;;;;;;20.60;14.43;;;19.30;75.50;;;;;;5033740;28;20167;-78
2021/09/09 01:59:35;;;;;;;19.30;15.23;;;19.30;75.60;;;;;;5048892;28;20036;-78
2021/09/09 02:02:01;;;;;;;14.93;11.85;;;19.30;75.60;;;;;;5036358;28;20038;-78
2021/09/09 02:04:29;;;;;;;15.15;12.38;;;19.20;75.60;;;;;;5031964;28;20084;-77
2021/09/09 02:06:56;;;;;;;14.68;10.00;;;19.30;75.60;;;;;;5033167;28;20056;-78
2021/09/09 02:09:22;;;;;;;16.45;11.25;;;19.20;75.90;;;;;;5032736;28;20462;-78
2021/09/09 02:11:47;;;;;;;17.00;12.20;;;19.10;75.80;;;;;;5032391;28;20045;-78
2021/09/09 02:14:13;;;;;;;17.55;11.98;;;19.10;75.90;;;;;;5031999;28;20370;-78
2021/09/09 02:16:39;;;;;;;15.50;11.27;;;19.10;76.10;;;;;;5032751;28;20031;-78
2021/09/09 02:19:04;;;;;;;15.95;12.30;;;19.10;76.20;;;;;;5031529;28;20079;-77
2021/09/09 02:21:30;;;;;;;17.08;12.40;;;19.00;76.20;;;;;;5031903;28;20025;-78
2021/09/09 02:23:55;;;;;;;17.05;12.38;;;19.10;76.40;;;;;;5031442;28;20068;-79
2021/09/09 02:26:21;;;;;;;18.45;13.75;;;19.00;76.40;;;;;;5033616;28;20053;-78
2021/09/09 02:28:47;;;;;;;21.83;14.93;;;19.00;76.50;;;;;;5031586;28;20381;-78
2021/09/09 02:31:13;;;;;;;21.92;14.85;;;19.00;76.70;;;;;;5032058;28;20030;-78
2021/09/09 02:33:39;;;;;;;19.67;14.02;;;18.90;76.80;;;;;;5032376;28;20018;-78
2021/09/09 02:36:05;;;;;;;19.60;13.48;;;18.90;76.80;;;;;;5032552;28;20025;-77
2021/09/09 02:38:31;;;;;;;18.45;14.05;;;18.90;76.80;;;;;;5032111;28;20385;-78
2021/09/09 02:40:56;;;;;;;22.00;16.50;;;18.90;77.00;;;;;;5031516;28;20458;-77
2021/09/09 02:43:22;;;;;;;19.40;15.13;;;18.80;77.00;;;;;;5031839;28;20028;-77
2021/09/09 02:45:47;;;;;;;20.85;16.17;;;18.80;77.10;;;;;;5031329;28;20025;-77
2021/09/09 02:48:13;;;;;;;17.73;14.07;;;18.80;77.10;;;;;;5031707;28;20037;-78
2021/09/09 02:50:39;;;;;;;24.23;15.73;;;18.80;77.10;;;;;;5033173;28;20463;-78
2021/09/09 02:53:05;;;;;;;18.52;14.90;;;18.80;77.10;;;;;;5031767;28;20021;-78
2021/09/09 02:55:30;;;;;;;18.48;15.40;;;18.80;77.20;;;;;;5031643;28;20056;-77
2021/09/09 02:57:56;;;;;;;19.25;13.25;;;18.70;77.10;;;;;;5031758;28;20026;-78
2021/09/09 03:00:22;;;;;;;19.55;15.35;;;18.70;77.20;;;;;;5032747;28;20084;-78
2021/09/09 03:02:48;;;;;;;23.25;16.65;;;18.70;77.30;;;;;;5036921;28;20113;-78
2021/09/09 03:05:14;;;;;;;18.95;13.88;;;18.70;77.40;;;;;;5036428;28;20108;-77
2021/09/09 03:07:39;;;;;;;21.80;15.80;;;18.70;77.50;;;;;;5037222;28;20083;-76
2021/09/09 03:10:06;;;;;;;20.00;14.93;;;18.60;77.40;;;;;;5034540;28;20029;-78
2021/09/09 03:12:32;;;;;;;22.27;15.05;;;18.60;77.60;;;;;;5034931;28;20112;-77
2021/09/09 03:14:58;;;;;;;18.63;15.02;;;18.60;77.60;;;;;;5034205;28;20025;-77
2021/09/09 03:17:24;;;;;;;21.83;16.58;;;18.60;78.30;;;;;;5035612;28;20025;-77
2021/09/09 03:19:49;;;;;;;21.25;16.77;;;18.60;77.70;;;;;;5037045;28;20029;-77
2021/09/09 03:22:15;;;;;;;18.77;14.20;;;18.50;78.00;;;;;;5035323;28;20445;-77
2021/09/09 03:24:41;;;;;;;23.45;17.10;;;18.50;78.10;;;;;;5036402;28;20029;-76
2021/09/09 03:27:07;;;;;;;20.15;14.25;;;18.50;78.10;;;;;;5037411;28;20083;-76
2021/09/09 03:29:32;;;;;;;19.10;15.27;;;18.50;78.20;;;;;;5039308;28;20033;-77
2021/09/09 03:31:58;;;;;;;22.23;16.58;;;18.40;78.30;;;;;;5036225;28;20037;-78
2021/09/09 03:34:23;;;;;;;19.90;15.90;;;18.40;78.40;;;;;;5035318;28;20095;-79
2021/09/09 03:36:49;;;;;;;21.10;16.67;;;18.40;78.40;;;;;;5035907;28;20022;-78
2021/09/09 03:39:15;;;;;;;22.52;16.88;;;18.40;78.70;;;;;;5034478;28;20049;-77
2021/09/09 03:41:41;;;;;;;20.40;16.38;;;18.30;78.70;;;;;;5034905;28;20021;-78
2021/09/09 03:44:06;;;;;;;17.40;13.35;;;18.30;78.90;;;;;;5034671;28;20026;-77
2021/09/09 03:46:32;;;;;;;19.98;15.65;;;18.30;78.90;;;;;;5035078;28;20013;-77
2021/09/09 03:48:57;;;;;;;21.58;17.17;;;18.20;78.90;;;;;;5034740;28;20030;-77
2021/09/09 03:51:23;;;;;;;19.15;14.30;;;18.30;79.10;;;;;;5034588;28;20033;-76
2021/09/09 03:53:49;;;;;;;19.65;16.48;;;18.20;79.00;;;;;;5034606;28;20026;-77
2021/09/09 03:56:14;;;;;;;22.27;17.33;;;18.20;79.00;;;;;;5034805;28;20469;-77
2021/09/09 03:58:40;;;;;;;23.90;16.88;;;18.20;79.20;;;;;;5034987;28;20026;-78
2021/09/09 04:01:05;;;;;;;20.75;16.35;;;18.10;79.20;;;;;;5037374;28;20030;-78
2021/09/09 04:03:31;;;;;;;20.40;14.82;;;18.10;79.30;;;;;;5050970;28;20049;-78
2021/09/09 04:05:56;;;;;;;18.30;14.43;;;18.10;79.20;;;;;;5046177;28;20018;-77
2021/09/09 04:08:22;;;;;;;20.67;16.02;;;18.10;79.20;;;;;;5033620;28;20029;-77
2021/09/09 04:10:49;;;;;;;20.05;15.77;;;18.10;79.40;;;;;;5034485;28;20025;-77
2021/09/09 04:13:14;;;;;;;20.35;14.48;;;18.00;79.50;;;;;;5033556;28;20104;-77
2021/09/09 04:15:40;;;;;;;20.73;16.40;;;18.00;79.60;;;;;;5033676;28;20445;-77
2021/09/09 04:18:06;;;;;;;23.10;16.80;;;18.00;79.60;;;;;;5033358;28;20425;-77
2021/09/09 04:20:31;;;;;;;21.75;16.77;;;18.00;79.70;;;;;;5034886;28;20036;-77
2021/09/09 04:22:57;;;;;;;24.23;17.33;;;18.00;79.90;;;;;;5033486;28;20029;-77
2021/09/09 04:25:22;;;;;;;23.00;17.02;;;18.00;79.90;;;;;;5034289;28;20557;-78
2021/09/09 04:27:48;;;;;;;21.45;16.58;;;18.00;80.00;;;;;;5032974;28;20496;-78
2021/09/09 04:30:14;;;;;;;21.27;16.25;;;17.90;80.00;;;;;;5034332;28;20031;-77
2021/09/09 04:32:39;;;;;;;26.80;18.65;;;17.90;80.10;;;;;;5033365;28;20481;-77
2021/09/09 04:35:05;;;;;;;23.02;16.85;;;17.90;80.10;;;;;;5034205;28;20474;-77
2021/09/09 04:37:33;;;;;;;18.90;13.60;;;17.90;80.20;;;;;;5032685;28;20114;-77
2021/09/09 04:39:58;;;;;;;21.40;15.40;;;17.90;80.20;;;;;;5033066;28;20036;-77
2021/09/09 04:42:24;;;;;;;26.77;18.13;;;17.90;80.20;;;;;;5032516;28;20026;-77
2021/09/09 04:44:50;;;;;;;20.85;17.20;;;17.90;80.20;;;;;;5033720;28;20025;-76
2021/09/09 04:47:15;;;;;;;21.85;16.73;;;17.90;80.30;;;;;;5033418;28;20108;-77
2021/09/09 04:49:41;;;;;;;20.58;17.00;;;17.90;80.30;;;;;;5033859;28;20444;-77
2021/09/09 04:52:06;;;;;;;22.10;16.98;;;17.80;80.20;;;;;;5033633;28;20312;-78
2021/09/09 04:54:32;;;;;;;22.80;16.23;;;17.80;80.20;;;;;;5033817;28;20433;-77
2021/09/09 04:56:58;;;;;;;25.20;17.13;;;17.80;80.20;;;;;;5034460;28;20026;-78
2021/09/09 04:59:23;;;;;;;23.58;17.05;;;17.80;80.20;;;;;;5033518;28;20061;-78
2021/09/09 05:01:49;;;;;;;24.98;18.60;;;17.80;80.20;;;;;;5033219;28;20075;-78
2021/09/09 05:04:14;;;;;;;22.20;16.58;;;17.80;80.20;;;;;;5032304;28;20083;-77
2021/09/09 05:06:40;;;;;;;28.05;19.05;;;17.80;80.20;;;;;;5034259;28;20104;-77
2021/09/09 05:09:05;;;;;;;23.05;17.50;;;17.80;80.30;;;;;;5033585;28;20091;-79
2021/09/09 05:11:31;;;;;;;25.13;18.65;;;17.80;80.30;;;;;;5033016;28;20466;-79
2021/09/09 05:13:57;;;;;;;23.38;18.65;;;17.80;80.40;;;;;;5033457;28;20059;-78
2021/09/09 05:16:22;;;;;;;22.58;17.98;;;17.80;80.70;;;;;;5034194;28;20553;-79
2021/09/09 05:18:48;;;;;;;24.90;18.08;;;17.80;80.60;;;;;;5037679;28;20025;-76
2021/09/09 05:21:14;;;;;;;20.25;16.45;;;17.80;80.50;;;;;;5037390;28;20089;-77
2021/09/09 05:23:39;;;;;;;22.75;17.88;;;17.80;80.60;;;;;;5033316;28;20032;-77
2021/09/09 05:26:05;;;;;;;23.35;18.70;;;17.80;80.50;;;;;;5034055;28;20108;-77
2021/09/09 05:28:30;;;;;;;23.25;18.17;;;17.80;80.50;;;;;;5032606;28;20112;-78
2021/09/09 05:30:56;;;;;;;23.52;18.13;;;17.80;80.40;;;;;;5032855;28;20022;-78
2021/09/09 05:33:22;;;;;;;27.80;19.70;;;17.80;80.40;;;;;;5032753;28;20134;-79
2021/09/09 05:35:47;;;;;;;29.15;19.30;;;17.80;80.50;;;;;;5032244;28;20017;-78
2021/09/09 05:38:13;;;;;;;21.23;16.65;;;17.90;80.40;;;;;;5031901;28;20036;-78
2021/09/09 05:40:39;;;;;;;23.63;18.85;;;17.80;80.30;;;;;;5032060;28;20515;-78
2021/09/09 05:43:05;;;;;;;22.65;16.85;;;17.90;80.30;;;;;;5031410;28;20015;-77
2021/09/09 05:45:31;;;;;;;21.80;16.27;;;17.90;80.10;;;;;;5032276;28;20076;-78
2021/09/09 05:47:56;;;;;;;23.45;18.02;;;18.00;80.00;;;;;;5032612;28;20044;-78
2021/09/09 05:50:22;;;;;;;23.85;17.58;;;18.10;79.90;;;;;;5032021;28;20021;-79
2021/09/09 05:52:48;;;;;;;22.42;17.33;;;18.10;79.80;;;;;;5032330;28;20548;-78
2021/09/09 05:55:14;;;;;;;21.92;17.23;;;18.20;79.80;;;;;;5032654;28;20025;-78
2021/09/09 05:57:40;;;;;;;26.58;19.45;;;18.20;79.50;;;;;;5032318;28;20098;-78
2021/09/09 06:00:08;;;;;;;23.55;18.42;;;18.30;79.40;;;;;;5032059;28;20482;-78
2021/09/09 06:02:40;;;;;;;27.35;20.52;;;18.40;79.20;;;;;;5031849;28;20049;-78
2021/09/09 06:05:07;;;;;;;22.10;17.67;;;18.50;78.90;;;;;;5032609;28;20421;-78
2021/09/09 06:07:32;;;;;;;22.88;18.02;;;18.60;78.60;;;;;;5033196;28;20113;-77
2021/09/09 06:09:58;;;;;;;21.75;17.60;;;18.70;78.50;;;;;;5040738;28;20029;-77
2021/09/09 06:12:26;;;;;;;22.42;16.73;;;18.70;78.30;;;;;;5039690;28;20068;-78
2021/09/09 06:14:53;;;;;;;27.27;19.65;;;18.80;77.90;;;;;;5032256;28;20034;-78
2021/09/09 06:17:19;;;;;;;24.48;17.23;;;18.90;77.30;;;;;;5031487;28;20057;-78
2021/09/09 06:19:44;;;;;;;25.88;17.15;;;19.00;77.00;;;;;;5031658;28;20118;-79
2021/09/09 06:22:10;;;;;;;20.98;14.13;;;19.10;76.70;;;;;;5033716;28;20029;-77
2021/09/09 06:24:35;;;;;;;18.80;14.55;;;19.10;76.50;;;;;;5032152;28;20049;-77
2021/09/09 06:27:01;;;;;;;19.48;14.93;;;19.20;76.50;;;;;;5034215;28;20093;-77
2021/09/09 06:29:27;;;;;;;21.25;16.05;;;19.30;76.20;;;;;;5031094;28;20037;-79
2021/09/09 06:31:52;;;;;;;19.67;15.48;;;19.40;76.00;;;;;;5031956;28;20021;-80
2021/09/09 06:34:18;;;;;;;22.70;17.42;;;19.50;75.80;;;;;;5031181;28;20053;-78
2021/09/09 06:36:44;;;;;;;16.45;13.13;;;19.40;75.50;;;;;;5034812;28;20474;-78
2021/09/09 06:39:10;;;;;;;26.65;17.42;;;19.50;75.70;;;;;;5034906;28;20029;-80
2021/09/09 06:41:36;;;;;;;21.83;14.57;;;19.50;75.70;;;;;;5036471;28;20053;-77
2021/09/09 06:44:02;;;;;;;24.00;18.27;;;19.60;75.80;;;;;;5035605;28;20072;-78
2021/09/09 06:46:27;;;;;;;27.52;20.67;;;19.70;75.50;;;;;;5035034;28;20033;-81
2021/09/09 06:48:53;;;;;;;23.02;16.88;;;19.70;74.80;;;;;;5035167;28;20554;-77
2021/09/09 06:51:21;;;;;;;22.55;16.85;;;19.90;74.80;;;;;;5036017;28;20022;-78
2021/09/09 06:53:47;;;;;;;25.15;20.23;;;19.90;74.40;;;;;;5035003;28;20032;-77
2021/09/09 06:56:13;;;;;;;25.33;18.27;;;20.00;74.30;;;;;;5035181;28;20116;-79
2021/09/09 06:58:38;;;;;;;19.75;16.40;;;20.10;73.70;;;;;;5035008;28;20034;-78
2021/09/09 07:01:04;;;;;;;22.88;15.88;;;20.30;73.80;;;;;;5034868;28;20179;-78
2021/09/09 07:03:30;;;;;;;30.00;20.60;;;20.40;73.30;;;;;;5035906;28;20025;-78
2021/09/09 07:05:57;;;;;;;22.83;16.88;;;20.50;71.80;;;;;;5035080;28;20068;-78
2021/09/09 07:08:23;;;;;;;25.85;19.02;;;20.60;71.60;;;;;;5040598;28;20111;-75
2021/09/09 07:10:48;;;;;;;15.38;11.50;;;20.70;71.90;;;;;;5038461;28;20470;-78
2021/09/09 07:13:17;;;;;;;27.63;19.92;;;20.80;71.90;;;;;;5035594;28;20053;-78
2021/09/09 07:15:44;;;;;;;27.48;18.40;;;20.90;71.00;;;;;;5041652;28;20045;-77
2021/09/09 07:18:09;;;;;;;25.38;19.48;;;20.90;70.50;;;;;;5035499;28;20029;-78
2021/09/09 07:20:35;;;;;;;12.27;9.30;;;20.90;69.30;;;;;;5035862;28;20033;-78
2021/09/09 07:23:01;;;;;;;13.98;10.93;;;21.00;71.60;;;;;;5036518;28;20425;-78
2021/09/09 07:25:26;;;;;;;16.08;10.35;;;21.10;71.80;;;;;;5035785;28;20021;-79
2021/09/09 07:27:52;;;;;;;29.67;20.40;;;21.20;71.70;;;;;;5036589;28;20033;-78
2021/09/09 07:30:18;;;;;;;26.30;20.08;;;21.40;69.90;;;;;;5036028;28;20025;-78
2021/09/09 07:32:43;;;;;;;25.05;18.85;;;21.40;67.90;;;;;;5034772;28;20466;-77
2021/09/09 07:35:10;;;;;;;23.42;16.35;;;21.50;68.70;;;;;;5034985;28;20017;-77
2021/09/09 07:37:36;;;;;;;23.05;17.83;;;21.60;68.20;;;;;;5033901;28;20033;-77
2021/09/09 07:40:02;;;;;;;31.80;22.23;;;21.60;68.10;;;;;;5034847;28;20029;-79
2021/09/09 07:42:28;;;;;;;23.45;17.38;;;21.70;67.20;;;;;;5034712;28;20029;-79
2021/09/09 07:44:54;;;;;;;26.02;20.83;;;21.70;68.60;;;;;;5036653;28;20478;-77
2021/09/09 07:47:20;;;;;;;25.60;21.00;;;21.80;67.70;;;;;;5033132;28;20018;-78
2021/09/09 07:49:45;;;;;;;25.33;21.05;;;21.90;67.50;;;;;;5035681;28;20390;-77
2021/09/09 07:52:11;;;;;;;30.38;20.02;;;22.00;67.30;;;;;;5041430;28;20037;-77
2021/09/09 07:54:36;;;;;;;29.02;22.80;;;22.20;66.90;;;;;;5036285;28;20017;-78
2021/09/09 07:57:02;;;;;;;24.33;19.02;;;22.40;66.40;;;;;;5034584;28;20125;-77
2021/09/09 07:59:28;;;;;;;21.17;17.25;;;22.40;66.50;;;;;;5035162;28;20116;-78
2021/09/09 08:01:54;;;;;;;27.33;19.95;;;22.50;66.30;;;;;;5034584;28;20059;-78
2021/09/09 08:04:19;;;;;;;25.88;17.70;;;22.50;66.70;;;;;;5035180;28;20038;-77
2021/09/09 08:06:45;;;;;;;28.92;21.63;;;22.40;67.80;;;;;;5034077;28;20382;-77
2021/09/09 08:09:12;;;;;;;18.38;14.93;;;22.60;66.50;;;;;;5034120;28;20026;-77
2021/09/09 08:11:38;;;;;;;23.17;19.27;;;22.70;67.30;;;;;;5033983;28;20021;-77
2021/09/09 08:14:04;;;;;;;24.15;17.77;;;22.70;66.90;;;;;;5037817;28;20116;-77
2021/09/09 08:16:30;;;;;;;21.10;16.65;;;22.90;66.80;;;;;;5055443;28;20030;-77
2021/09/09 08:18:56;;;;;;;26.23;19.77;;;23.00;66.40;;;;;;5034623;28;20025;-77
2021/09/09 08:21:21;;;;;;;26.45;20.92;;;23.20;66.20;;;;;;5033415;28;20124;-78
2021/09/09 08:23:47;;;;;;;29.17;20.85;;;23.40;65.50;;;;;;5034510;28;20033;-77
2021/09/09 08:26:13;;;;;;;24.38;19.60;;;23.60;65.00;;;;;;5035534;28;20057;-77
2021/09/09 08:28:39;;;;;;;24.45;18.20;;;23.70;63.50;;;;;;5040308;28;20041;-78
2021/09/09 08:31:05;;;;;;;26.17;21.20;;;23.90;64.10;;;;;;5035795;28;20470;-77
2021/09/09 08:33:31;;;;;;;28.00;19.20;;;24.10;63.60;;;;;;5033976;28;20026;-78
2021/09/09 08:35:57;;;;;;;26.08;19.20;;;24.20;62.40;;;;;;5035027;28;20075;-77
2021/09/09 08:38:22;;;;;;;20.10;16.70;;;24.40;62.80;;;;;;5034124;28;20495;-79
2021/09/09 08:40:50;;;;;;;20.10;16.75;;;24.60;62.20;;;;;;5036189;28;20029;-78
2021/09/09 08:43:17;;;;;;;17.30;12.20;;;24.70;62.60;;;;;;5033567;28;20474;-78
2021/09/09 08:45:47;;;;;;;26.52;17.55;;;24.70;62.70;;;;;;5034176;28;20030;-79
2021/09/09 08:48:15;;;;;;;25.50;18.30;;;24.70;60.90;;;;;;5033654;28;20060;-78
2021/09/09 08:50:40;;;;;;;21.63;15.80;;;24.70;61.40;;;;;;5033238;28;20071;-77
2021/09/09 08:53:06;;;;;;;18.52;14.63;;;25.00;61.40;;;;;;5034826;28;20029;-79
2021/09/09 08:55:32;;;;;;;20.55;15.48;;;25.20;60.60;;;;;;5033394;28;20022;-78
2021/09/09 08:57:59;;;;;;;17.17;12.48;;;25.30;59.20;;;;;;5036705;28;20117;-77
2021/09/09 09:00:25;;;;;;;22.20;16.35;;;25.40;59.20;;;;;;5037303;28;20032;-76
2021/09/09 09:02:56;;;;;;;18.65;14.68;;;25.50;57.60;;;;;;5035562;28;20093;-78
2021/09/09 09:05:22;;;;;;;14.90;11.90;;;25.60;58.40;;;;;;5039382;28;20062;-78
2021/09/09 09:08:05;;;;;;;17.17;13.82;;;25.80;57.60;;;;;;5035387;28;20053;-78
2021/09/09 09:10:32;;;;;;;17.33;13.65;;;26.10;57.40;;;;;;5033977;28;20021;-78
2021/09/09 09:12:59;;;;;;;18.35;14.13;;;26.30;57.20;;;;;;5032758;28;20018;-78
2021/09/09 09:15:31;;;;;;;14.07;9.30;;;26.40;58.10;;;;;;5034381;28;20082;-78
2021/09/09 09:18:03;;;;;;;19.08;15.35;;;26.40;58.60;;;;;;5034308;28;20469;-77
2021/09/09 09:20:52;;;;;;;18.85;14.02;;;26.30;59.10;;;;;;5032852;28;20040;-77
2021/09/09 09:23:24;;;;;;;11.60;9.25;;;26.40;58.10;;;;;;5032485;28;20535;-77
2021/09/09 09:26:04;;;;;;;14.43;10.10;;;26.40;61.30;;;;;;5032608;28;20017;-78
2021/09/09 09:28:41;;;;;;;14.50;11.23;;;26.60;61.70;;;;;;5032946;28;20029;-78
2021/09/09 09:31:17;;;;;;;20.50;12.77;;;26.80;59.40;;;;;;5034502;28;20080;-78
2021/09/09 09:33:50;;;;;;;20.08;15.57;;;27.00;62.20;;;;;;5033160;28;20494;-78
2021/09/09 09:36:20;;;;;;;14.35;9.80;;;27.10;56.00;;;;;;5034551;28;20025;-77
2021/09/09 09:38:46;;;;;;;18.13;12.48;;;27.20;58.90;;;;;;5033670;28;20473;-79
2021/09/09 09:41:13;;;;;;;10.90;8.43;;;27.20;61.70;;;;;;5037817;28;20045;-78
2021/09/09 09:43:53;;;;;;;15.88;11.52;;;27.20;61.50;;;;;;5040406;28;20037;-78
2021/09/09 09:46:24;;;;;;;9.23;6.97;;;27.10;61.50;;;;;;5033289;28;20022;-77
2021/09/09 09:48:49;;;;;;;17.02;12.20;;;27.30;63.10;;;;;;5032671;28;20022;-79
2021/09/09 09:51:25;;;;;;;9.50;6.82;;;27.20;59.30;;;;;;5034023;28;20103;-79
2021/09/09 09:54:07;;;;;;;12.98;5.80;;;27.20;63.30;;;;;;5032835;28;20117;-79
2021/09/09 09:56:37;;;;;;;10.43;7.20;;;27.00;63.40;;;;;;5033080;28;20466;-78
2021/09/09 09:59:03;;;;;;;8.85;6.05;;;27.00;63.00;;;;;;5034169;28;20026;-77
2021/09/09 10:01:30;;;;;;;15.63;11.90;;;27.10;62.20;;;;;;5032255;28;20057;-79
2021/09/09 10:04:01;;;;;;;13.80;9.15;;;27.30;58.20;;;;;;5033117;28;20049;-78
2021/09/09 10:06:28;;;;;;;9.77;6.13;;;27.30;57.50;;;;;;5034268;28;20018;-78
2021/09/09 10:08:54;;;;;;;12.00;8.68;;;27.40;61.30;;;;;;5031982;28;20041;-78
2021/09/09 10:11:20;;;;;;;12.98;10.43;;;27.40;62.10;;;;;;5035464;28;20040;-78
2021/09/09 10:13:47;;;;;;;10.10;7.35;;;27.60;55.70;;;;;;5037583;28;20481;-78
2021/09/09 10:16:16;;;;;;;10.85;6.18;;;27.80;59.80;;;;;;5038689;28;20070;-79
2021/09/09 10:18:42;;;;;;;14.73;11.07;;;27.90;62.00;;;;;;5045759;28;20026;-77
2021/09/09 10:21:09;;;;;;;14.18;10.68;;;28.00;59.90;;;;;;5050215;28;20025;-78
2021/09/09 10:23:34;;;;;;;14.45;9.93;;;28.10;60.00;;;;;;5035857;28;20030;-76
2021/09/09 10:26:03;;;;;;;9.30;7.65;;;28.30;59.50;;;;;;5037039;28;20025;-78
2021/09/09 10:28:32;;;;;;;16.00;10.73;;;28.60;57.00;;;;;;5036522;28;20478;-78
2021/09/09 10:31:08;;;;;;;8.93;5.80;;;28.90;55.10;;;;;;5036536;28;20029;-78
2021/09/09 10:33:43;;;;;;;15.77;10.68;;;28.90;61.50;;;;;;5038952;28;20053;-78
2021/09/09 10:36:41;;;;;;;13.63;8.40;;;29.00;57.90;;;;;;5036990;28;20075;-78
2021/09/09 10:39:12;;;;;;;11.02;7.70;;;29.10;59.30;;;;;;5036444;28;20030;-76
2021/09/09 10:41:38;;;;;;;10.80;7.93;;;29.10;58.00;;;;;;5036640;28;20021;-77
2021/09/09 10:44:08;;;;;;;17.98;12.45;;;29.10;58.10;;;;;;5036948;28;20473;-77
2021/09/09 10:46:38;;;;;;;16.40;9.52;;;29.40;54.20;;;;;;5038575;28;20096;-78
2021/09/09 10:49:13;;;;;;;12.45;10.30;;;29.50;58.20;;;;;;5042165;28;20037;-77
2021/09/09 10:51:59;;;;;;;11.43;8.23;;;29.70;56.30;;;;;;5036965;28;20021;-77
2021/09/09 10:54:25;;;;;;;17.95;14.27;;;29.70;59.40;;;;;;5042433;28;20048;-79
2021/09/09 10:56:53;;;;;;;11.35;7.15;;;29.80;54.80;;;;;;5040615;28;20108;-77
2021/09/09 10:59:19;;;;;;;11.90;7.50;;;29.80;58.50;;;;;;5035497;28;20115;-79
2021/09/09 11:01:47;;;;;;;15.95;13.93;;;29.90;60.60;;;;;;5037124;28;20021;-78
2021/09/09 11:04:33;;;;;;;16.77;13.70;;;30.00;54.40;;;;;;5035862;28;20032;-78
2021/09/09 11:07:01;;;;;;;11.07;8.88;;;30.10;51.60;;;;;;5036158;28;20029;-78
2021/09/09 11:09:27;;;;;;;17.05;13.02;;;30.20;60.40;;;;;;5036057;28;20029;-77
2021/09/09 11:12:04;;;;;;;13.80;12.20;;;30.30;54.80;;;;;;5035506;28;20026;-77
2021/09/09 11:14:32;;;;;;;16.77;12.10;;;30.20;52.80;;;;;;5035139;28;20021;-77
2021/09/09 11:16:58;;;;;;;14.18;9.55;;;30.10;54.90;;;;;;5034893;28;20069;-77
2021/09/09 11:19:24;;;;;;;20.10;13.63;;;30.10;58.30;;;;;;5035097;28;20087;-78
2021/09/09 11:21:51;;;;;;;11.23;8.23;;;30.10;57.00;;;;;;5034876;28;20025;-78
2021/09/09 11:24:18;;;;;;;8.88;6.75;;;30.00;59.40;;;;;;5035801;28;20035;-77
2021/09/09 11:26:49;;;;;;;14.75;11.00;;;30.10;63.20;;;;;;5036037;28;20484;-77
2021/09/09 11:29:18;;;;;;;7.70;6.25;;;30.20;58.00;;;;;;5036118;28;20136;-77
2021/09/09 11:31:57;;;;;;;9.65;7.25;;;30.40;63.10;;;;;;5040004;28;20029;-78
2021/09/09 11:34:23;;;;;;;16.05;11.73;;;30.60;60.50;;;;;;5035520;28;20026;-77
2021/09/09 11:36:50;;;;;;;13.90;10.77;;;30.90;56.80;;;;;;5036210;28;20025;-78
2021/09/09 11:39:19;;;;;;;16.38;9.57;;;31.10;51.50;;;;;;5035301;28;20040;-77
2021/09/09 11:41:45;;;;;;;15.48;10.77;;;31.10;54.50;;;;;;5035747;28;20026;-77
2021/09/09 11:44:34;;;;;;;10.35;7.13;;;31.30;56.90;;;;;;5034524;28;20164;-78
2021/09/09 11:47:15;;;;;;;17.30;12.15;;;31.60;59.70;;;;;;5035273;28;20052;-78
2021/09/09 11:49:42;;;;;;;13.27;9.75;;;31.50;56.00;;;;;;5034487;28;20462;-78
2021/09/09 11:52:09;;;;;;;9.32;6.38;;;31.30;54.10;;;;;;5034301;28;20021;-78
2021/09/09 11:54:36;;;;;;;20.40;13.35;;;31.20;59.50;;;;;;5034838;28;20509;-78
2021/09/09 11:57:12;;;;;;;13.85;11.25;;;31.10;56.80;;;;;;5036030;28;20132;-77
2021/09/09 11:59:52;;;;;;;14.23;12.57;;;30.80;58.60;;;;;;5036956;28;20040;-78
2021/09/09 12:02:29;;;;;;;17.33;14.27;;;30.60;57.60;;;;;;5049834;28;20044;-78
2021/09/09 12:04:56;;;;;;;14.82;11.65;;;30.50;55.60;;;;;;5056034;28;20115;-77
2021/09/09 12:07:28;;;;;;;12.75;8.73;;;30.50;56.10;;;;;;5076764;28;20021;-78
2021/09/09 12:09:57;;;;;;;16.35;11.25;;;30.40;56.30;;;;;;5044959;28;20029;-77
2021/09/09 12:12:23;;;;;;;14.35;10.70;;;30.40;57.40;;;;;;5065586;28;20025;-77
2021/09/09 12:15:12;;;;;;;17.52;14.98;;;30.40;56.80;;;;;;5065244;28;20427;-78
2021/09/09 12:17:39;;;;;;;25.00;17.45;;;30.30;55.00;;;;;;5056895;28;20144;-78
2021/09/09 12:20:08;;;;;;;22.02;17.60;;;30.30;56.70;;;;;;5068949;28;20028;-78
2021/09/09 12:22:48;;;;;;;14.13;11.13;;;30.30;54.40;;;;;;5054683;28;20028;-78
2021/09/09 12:25:15;;;;;;;18.52;13.70;;;30.70;60.90;;;;;;5068894;28;20028;-76
2021/09/09 12:28:02;;;;;;;22.17;16.00;;;31.10;58.10;;;;;;5053746;28;20025;-77